createdAt,value
2023-10-23T00:01:39.535Z,2.38
2023-10-23T00:04:07.728Z,3.53
2023-10-23T00:06:35.045Z,2.53
2023-10-23T00:09:03.478Z,2.28
2023-10-23T00:11:31.855Z,5.32
2023-10-23T00:13:59.474Z,3.60
2023-10-23T00:16:26.556Z,3.78
2023-10-23T00:18:53.686Z,3.08
2023-10-23T00:21:20.837Z,3.30
2023-10-23T00:23:47.911Z,3.17
2023-10-23T00:26:14.758Z,5.35
2023-10-23T00:28:41.707Z,3.95
2023-10-23T00:31:08.553Z,7.95
2023-10-23T00:33:35.730Z,3.95
2023-10-23T00:36:02.461Z,4.28
2023-10-23T00:38:29.890Z,3.92
2023-10-23T00:40:56.741Z,4.72
2023-10-23T00:43:25.587Z,5.53
2023-10-23T00:45:54.181Z,3.13
2023-10-23T00:48:22.948Z,3.75
2023-10-23T00:50:50.789Z,5.00
2023-10-23T00:53:19.070Z,4.25
2023-10-23T00:55:48.975Z,6.95
2023-10-23T00:58:16.220Z,5.22
2023-10-23T01:00:45.240Z,3.22
2023-10-23T01:03:12.364Z,5.20
2023-10-23T01:05:39.205Z,4.65
2023-10-23T01:08:06.640Z,4.63
2023-10-23T01:10:33.870Z,6.63
2023-10-23T01:13:00.860Z,3.40
2023-10-23T01:15:27.882Z,7.13
2023-10-23T01:17:54.944Z,3.28
2023-10-23T01:20:21.958Z,4.03
2023-10-23T01:22:48.833Z,5.78
2023-10-23T01:25:16.391Z,4.60
2023-10-23T01:27:43.751Z,6.03
2023-10-23T01:30:11.405Z,5.10
2023-10-23T01:32:38.594Z,5.90
2023-10-23T01:35:05.641Z,5.15
2023-10-23T01:37:32.648Z,4.82
2023-10-23T01:39:59.365Z,5.50
2023-10-23T01:42:29.876Z,6.93
2023-10-23T01:44:57.000Z,4.60
2023-10-23T01:47:24.347Z,7.05
2023-10-23T01:49:51.245Z,5.13
2023-10-23T01:52:18.730Z,4.80
2023-10-23T01:54:45.434Z,5.57
2023-10-23T01:57:15.382Z,4.57
2023-10-23T01:59:42.080Z,5.13
2023-10-23T02:02:08.963Z,4.20
2023-10-23T02:04:36.512Z,8.32
2023-10-23T02:07:03.679Z,7.45
2023-10-23T02:09:30.336Z,7.72
2023-10-23T02:11:57.341Z,7.95
2023-10-23T02:14:23.967Z,6.22
2023-10-23T02:16:50.907Z,5.80
2023-10-23T02:19:17.573Z,5.88
2023-10-23T02:21:50.650Z,5.88
2023-10-23T02:24:18.460Z,6.32
2023-10-23T02:26:45.488Z,5.90
2023-10-23T02:29:12.146Z,9.10
2023-10-23T02:31:39.525Z,4.72
2023-10-23T02:34:06.737Z,5.32
2023-10-23T02:36:34.247Z,7.18
2023-10-23T02:39:01.128Z,6.32
2023-10-23T02:41:31.776Z,7.70
2023-10-23T02:43:58.758Z,5.40
2023-10-23T02:46:26.036Z,6.95
2023-10-23T02:48:52.876Z,6.78
2023-10-23T02:51:19.961Z,5.13
2023-10-23T02:53:46.703Z,5.65
2023-10-23T02:56:13.924Z,6.50
2023-10-23T02:58:40.623Z,6.85
2023-10-23T03:01:22.306Z,6.95
2023-10-23T03:03:49.623Z,6.70
2023-10-23T03:06:16.763Z,5.45
2023-10-23T03:08:43.406Z,7.82
2023-10-23T03:11:10.957Z,5.15
2023-10-23T03:13:37.616Z,5.03
2023-10-23T03:16:05.098Z,4.65
2023-10-23T03:18:31.803Z,6.65
2023-10-23T03:21:00.611Z,5.10
2023-10-23T03:23:28.989Z,6.38
2023-10-23T03:25:57.335Z,5.20
2023-10-23T03:28:24.266Z,6.55
2023-10-23T03:30:51.399Z,8.15
2023-10-23T03:33:18.545Z,7.50
2023-10-23T03:35:45.730Z,6.07
2023-10-23T03:38:13.850Z,7.85
2023-10-23T03:40:40.848Z,9.52
2023-10-23T03:43:07.565Z,20.90
2023-10-23T03:45:38.258Z,9.25
2023-10-23T03:48:05.481Z,7.28
2023-10-23T03:50:32.541Z,8.23
2023-10-23T03:52:59.301Z,9.38
2023-10-23T03:55:26.302Z,6.20
2023-10-23T03:57:53.188Z,5.47
2023-10-23T04:00:20.394Z,7.45
2023-10-23T04:02:47.412Z,9.25
2023-10-23T04:05:14.463Z,6.32
2023-10-23T04:07:41.279Z,7.18
2023-10-23T04:10:09.618Z,11.15
2023-10-23T04:12:36.505Z,7.57
2023-10-23T04:15:04.278Z,12.02
2023-10-23T04:17:31.729Z,8.00
2023-10-23T04:19:59.265Z,7.15
2023-10-23T04:22:26.747Z,7.30
2023-10-23T04:24:56.024Z,9.68
2023-10-23T04:27:23.003Z,8.73
2023-10-23T04:29:50.001Z,11.98
2023-10-23T04:32:16.723Z,10.15
2023-10-23T04:34:43.752Z,8.63
2023-10-23T04:37:10.527Z,8.52
2023-10-23T04:39:37.682Z,8.63
2023-10-23T04:42:04.886Z,10.98
2023-10-23T04:44:32.057Z,10.45
2023-10-23T04:46:58.756Z,9.80
2023-10-23T04:49:25.651Z,11.15
2023-10-23T04:51:52.454Z,10.25
2023-10-23T04:54:19.451Z,10.02
2023-10-23T04:56:46.757Z,10.07
2023-10-23T04:59:13.701Z,11.88
2023-10-23T05:01:40.434Z,8.88
2023-10-23T05:04:07.458Z,11.25
2023-10-23T05:06:34.232Z,10.30
2023-10-23T05:09:01.174Z,11.82
2023-10-23T05:11:27.953Z,10.13
2023-10-23T05:13:55.145Z,10.45
2023-10-23T05:16:22.021Z,9.48
2023-10-23T05:18:49.104Z,8.70
2023-10-23T05:21:15.927Z,10.25
2023-10-23T05:23:43.134Z,12.35
2023-10-23T05:26:12.741Z,14.68
2023-10-23T05:28:41.508Z,13.48
2023-10-23T05:31:09.778Z,13.13
2023-10-23T05:33:37.174Z,9.63
2023-10-23T05:36:07.731Z,14.32
2023-10-23T05:38:34.746Z,10.68
2023-10-23T05:41:01.510Z,14.52
2023-10-23T05:43:28.660Z,11.20
2023-10-23T05:45:56.024Z,13.75
2023-10-23T05:48:23.498Z,12.90
2023-10-23T05:51:06.721Z,13.45
2023-10-23T05:53:34.956Z,18.48
2023-10-23T05:56:05.493Z,12.82
2023-10-23T05:58:33.632Z,11.65
2023-10-23T06:01:13.678Z,14.63
2023-10-23T06:03:40.924Z,12.63
2023-10-23T06:06:08.118Z,17.73
2023-10-23T06:08:35.248Z,16.88
2023-10-23T06:11:02.932Z,13.00
2023-10-23T06:13:30.065Z,15.02
2023-10-23T06:16:03.921Z,10.57
2023-10-23T06:18:36.199Z,11.23
2023-10-23T06:21:05.101Z,14.93
2023-10-23T06:23:40.433Z,13.73
2023-10-23T06:26:08.554Z,11.80
2023-10-23T06:28:36.475Z,11.77
2023-10-23T06:31:10.958Z,15.40
2023-10-23T06:33:40.150Z,12.90
2023-10-23T06:36:10.396Z,14.80
2023-10-23T06:38:37.905Z,12.88
2023-10-23T06:41:06.028Z,15.02
2023-10-23T06:43:33.825Z,15.30
2023-10-23T06:46:01.775Z,14.20
2023-10-23T06:48:30.728Z,16.00
2023-10-23T06:50:57.718Z,15.18
2023-10-23T06:53:24.739Z,13.95
2023-10-23T06:55:56.033Z,12.80
2023-10-23T06:58:23.233Z,11.60
2023-10-23T07:00:50.052Z,13.45
2023-10-23T07:03:17.457Z,13.35
2023-10-23T07:05:44.455Z,12.25
2023-10-23T07:08:11.587Z,12.40
2023-10-23T07:10:39.171Z,14.65
2023-10-23T07:13:18.834Z,19.80
2023-10-23T07:15:49.114Z,13.52
2023-10-23T07:18:16.321Z,19.75
2023-10-23T07:20:53.181Z,14.80
2023-10-23T07:23:20.201Z,12.90
2023-10-23T07:26:04.201Z,16.17
2023-10-23T07:28:36.767Z,11.40
2023-10-23T07:31:04.777Z,11.15
2023-10-23T07:33:32.330Z,13.50
2023-10-23T07:36:06.368Z,13.73
2023-10-23T07:38:33.936Z,13.45
2023-10-23T07:41:01.602Z,13.77
2023-10-23T07:43:29.463Z,10.18
2023-10-23T07:46:12.186Z,11.60
2023-10-23T07:48:43.390Z,10.57
2023-10-23T07:51:10.538Z,12.52
2023-10-23T07:53:37.614Z,12.40
2023-10-23T07:56:07.574Z,12.05
2023-10-23T07:58:34.814Z,12.57
2023-10-23T08:01:06.199Z,9.70
2023-10-23T08:03:34.942Z,11.65
2023-10-23T08:06:04.510Z,12.70
2023-10-23T08:08:39.284Z,11.73
2023-10-23T08:11:07.793Z,12.73
2023-10-23T08:13:35.368Z,14.30
2023-10-23T08:16:02.749Z,12.35
2023-10-23T08:18:39.053Z,11.82
2023-10-23T08:21:14.291Z,9.68
2023-10-23T08:23:42.827Z,11.60
2023-10-23T08:26:10.916Z,9.35
2023-10-23T08:31:16.746Z,11.70
2023-10-23T08:33:48.789Z,10.75
2023-10-23T08:36:15.721Z,13.15
2023-10-23T08:38:42.662Z,18.50
2023-10-23T08:41:11.790Z,12.48
2023-10-23T08:43:40.494Z,11.45
2023-10-23T08:46:09.318Z,11.90
2023-10-23T08:48:39.633Z,11.38
2023-10-23T08:51:08.209Z,10.68
2023-10-23T08:53:40.081Z,9.73
2023-10-23T08:56:08.010Z,13.13
2023-10-23T08:58:37.332Z,11.85
2023-10-23T09:01:04.674Z,11.93
2023-10-23T09:04:03.968Z,11.32
2023-10-23T09:06:20.066Z,11.65
2023-10-23T09:08:47.275Z,11.63
2023-10-23T09:11:14.323Z,13.20
2023-10-23T09:13:42.446Z,10.45
2023-10-23T09:16:10.460Z,11.95
2023-10-23T09:18:50.757Z,9.85
2023-10-23T09:21:17.793Z,10.55
2023-10-23T09:23:53.459Z,11.70
2023-10-23T09:26:21.044Z,11.60
2023-10-23T09:28:50.373Z,10.77
2023-10-23T09:31:17.875Z,12.73
2023-10-23T09:33:46.325Z,15.63
2023-10-23T09:36:13.937Z,13.82
2023-10-23T09:38:55.972Z,11.88
2023-10-23T09:41:22.679Z,9.38
2023-10-23T09:43:51.653Z,9.82
2023-10-23T09:46:20.381Z,8.93
2023-10-23T09:48:49.448Z,11.77
2023-10-23T09:51:17.035Z,10.85
2023-10-23T09:53:49.723Z,9.73
2023-10-23T09:56:21.946Z,9.70
2023-10-23T09:58:54.765Z,9.40
2023-10-23T10:01:24.942Z,8.40
2023-10-23T10:03:53.286Z,12.88
2023-10-23T10:06:22.204Z,10.05
2023-10-23T10:08:51.324Z,10.95
2023-10-23T10:11:19.026Z,9.75
2023-10-23T10:13:47.627Z,8.27
2023-10-23T10:16:14.914Z,16.58
2023-10-23T10:18:43.931Z,9.02
2023-10-23T10:21:12.159Z,10.43
2023-10-23T10:23:39.766Z,7.10
2023-10-23T10:26:06.819Z,8.70
2023-10-23T10:28:37.805Z,8.10
2023-10-23T10:31:04.595Z,8.25
2023-10-23T10:34:25.987Z,10.82
2023-10-23T10:36:45.674Z,8.55
2023-10-23T10:39:08.998Z,10.18
2023-10-23T10:41:36.695Z,9.52
2023-10-23T10:44:10.615Z,9.40
2023-10-23T10:46:40.862Z,6.72
2023-10-23T10:49:08.372Z,9.48
2023-10-23T10:51:35.587Z,6.80
2023-10-23T10:54:11.781Z,9.68
2023-10-23T10:56:38.593Z,9.13
2023-10-23T10:59:06.119Z,8.65
2023-10-23T11:01:33.973Z,9.48
2023-10-23T11:04:01.646Z,7.95
2023-10-23T11:06:30.492Z,13.20
2023-10-23T11:08:59.613Z,9.02
2023-10-23T11:11:29.429Z,11.93
2023-10-23T11:14:03.005Z,11.05
2023-10-23T11:16:30.987Z,9.93
2023-10-23T11:18:58.068Z,11.57
2023-10-23T11:21:24.968Z,10.95
2023-10-23T11:23:56.024Z,8.80
2023-10-23T11:26:22.821Z,11.07
2023-10-23T11:28:49.798Z,9.80
2023-10-23T11:31:16.493Z,11.65
2023-10-23T11:33:43.491Z,11.73
2023-10-23T11:36:10.431Z,9.80
2023-10-23T11:38:37.983Z,10.32
2023-10-23T11:41:04.708Z,9.85
2023-10-23T11:43:31.984Z,8.15
2023-10-23T11:45:59.184Z,10.13
2023-10-23T11:48:26.581Z,10.23
2023-10-23T11:50:53.696Z,8.95
2023-10-23T11:53:20.664Z,11.95
2023-10-23T11:55:47.472Z,7.28
2023-10-23T11:58:14.473Z,8.82
2023-10-23T12:00:41.699Z,8.02
2023-10-23T12:03:08.655Z,10.10
2023-10-23T12:05:35.458Z,8.18
2023-10-23T12:08:03.000Z,10.13
2023-10-23T12:10:29.824Z,9.68
2023-10-23T12:12:57.225Z,10.93
2023-10-23T12:15:24.823Z,8.93
2023-10-23T12:17:52.241Z,7.13
2023-10-23T12:20:22.945Z,7.95
2023-10-23T12:22:51.281Z,7.90
2023-10-23T12:25:18.407Z,7.93
2023-10-23T12:27:45.739Z,8.65
2023-10-23T12:30:16.250Z,8.73
2023-10-23T12:33:12.043Z,7.72
2023-10-23T12:35:33.018Z,8.90
2023-10-23T12:38:00.108Z,7.35
2023-10-23T12:40:30.277Z,7.70
2023-10-23T12:42:59.547Z,6.07
2023-10-23T12:45:27.122Z,7.50
2023-10-23T12:47:54.109Z,9.68
2023-10-23T12:50:20.890Z,7.68
2023-10-23T12:52:49.516Z,7.63
2023-10-23T12:55:17.283Z,5.88
2023-10-23T12:57:44.538Z,6.85
2023-10-23T13:00:14.806Z,9.20
2023-10-23T13:02:43.382Z,9.07
2023-10-23T13:05:10.765Z,8.35
2023-10-23T13:07:38.275Z,6.95
2023-10-23T13:10:05.439Z,6.63
2023-10-23T13:12:32.366Z,7.40
2023-10-23T13:14:59.148Z,8.23
2023-10-23T13:17:26.236Z,6.65
2023-10-23T13:19:54.940Z,5.90
2023-10-23T13:22:22.111Z,6.97
2023-10-23T13:24:48.841Z,9.60
2023-10-23T13:27:18.827Z,8.73
2023-10-23T13:29:45.712Z,6.50
2023-10-23T13:32:15.339Z,5.78
2023-10-23T13:34:45.966Z,4.82
2023-10-23T13:37:13.589Z,7.00
2023-10-23T13:39:40.490Z,5.32
2023-10-23T13:42:07.545Z,4.88
2023-10-23T13:44:34.350Z,5.30
2023-10-23T13:47:02.098Z,6.05
2023-10-23T13:49:29.044Z,5.70
2023-10-23T13:51:56.191Z,5.40
2023-10-23T13:54:24.687Z,5.90
2023-10-23T13:56:51.731Z,4.97
2023-10-23T13:59:18.425Z,6.80
2023-10-23T14:01:45.465Z,6.30
2023-10-23T14:04:12.352Z,7.95
2023-10-23T14:06:39.554Z,9.10
2023-10-23T14:09:41.808Z,8.80
2023-10-23T14:11:59.377Z,10.07
2023-10-23T14:14:29.428Z,9.88
2023-10-23T14:16:59.134Z,7.78
2023-10-23T14:19:42.522Z,11.50
2023-10-23T14:22:13.376Z,13.15
2023-10-23T14:24:40.621Z,6.88
2023-10-23T14:27:07.956Z,9.93
2023-10-23T14:29:34.707Z,9.30
2023-10-23T14:32:02.132Z,10.60
2023-10-23T14:34:29.149Z,7.30
2023-10-23T14:36:56.675Z,7.45
2023-10-23T14:39:27.763Z,6.38
2023-10-23T14:41:54.883Z,7.15
2023-10-23T14:44:22.042Z,7.18
2023-10-23T14:46:50.181Z,7.82
2023-10-23T14:49:18.027Z,8.65
2023-10-23T14:51:45.360Z,8.35
2023-10-23T14:54:12.097Z,7.90
2023-10-23T14:56:39.364Z,6.28
2023-10-23T14:59:06.139Z,7.78
2023-10-23T15:01:34.140Z,8.20
2023-10-23T15:04:01.514Z,8.48
2023-10-23T15:06:28.776Z,6.95
2023-10-23T15:08:55.715Z,8.98
2023-10-23T15:11:23.585Z,7.80
2023-10-23T15:13:51.539Z,9.88
2023-10-23T15:16:18.635Z,10.38
2023-10-23T15:18:45.478Z,8.73
2023-10-23T15:21:12.747Z,10.50
2023-10-23T15:23:39.818Z,10.52
2023-10-23T15:26:06.802Z,13.70
2023-10-23T15:28:36.423Z,11.65
2023-10-23T15:31:06.405Z,13.60
2023-10-23T15:33:35.300Z,11.52
2023-10-23T15:36:02.925Z,11.05
2023-10-23T15:38:30.548Z,11.98
2023-10-23T15:41:12.241Z,11.63
2023-10-23T15:43:41.153Z,10.93
2023-10-23T15:46:15.949Z,11.07
2023-10-23T15:48:43.355Z,11.88
2023-10-23T15:51:10.477Z,11.65
2023-10-23T15:53:37.547Z,13.05
2023-10-23T15:56:05.033Z,13.13
2023-10-23T15:58:33.198Z,14.80
2023-10-23T16:01:03.443Z,14.35
2023-10-23T16:03:30.300Z,13.82
2023-10-23T16:06:02.106Z,12.70
2023-10-23T16:08:29.043Z,15.98
2023-10-23T16:10:56.143Z,13.95
2023-10-23T16:13:22.916Z,17.27
2023-10-23T16:15:49.977Z,19.15
2023-10-23T16:18:17.556Z,16.13
2023-10-23T16:20:44.891Z,17.33
2023-10-23T16:23:12.046Z,18.90
2023-10-23T16:25:43.037Z,22.33
2023-10-23T16:28:11.181Z,16.48
2023-10-23T16:30:39.473Z,18.58
2023-10-23T16:33:07.049Z,17.75
2023-10-23T16:35:35.486Z,18.48
2023-10-23T16:38:02.233Z,19.35
2023-10-23T16:40:29.261Z,17.83
2023-10-23T16:42:56.100Z,19.67
2023-10-23T16:45:23.080Z,20.00
2023-10-23T16:47:50.619Z,18.52
2023-10-23T16:50:17.782Z,16.98
2023-10-23T16:52:46.162Z,23.80
2023-10-23T16:55:13.223Z,16.48
2023-10-23T16:57:41.821Z,18.48
2023-10-23T17:00:13.609Z,17.08
2023-10-23T17:02:41.198Z,19.90
2023-10-23T17:05:12.413Z,16.60
2023-10-23T17:07:40.172Z,20.05
2023-10-23T17:10:08.067Z,19.42
2023-10-23T17:12:35.241Z,17.42
2023-10-23T17:15:03.504Z,17.23
2023-10-23T17:17:30.407Z,16.27
2023-10-23T17:19:57.629Z,20.08
2023-10-23T17:22:24.347Z,19.27
2023-10-23T17:24:51.458Z,20.88
2023-10-23T17:27:18.120Z,18.30
2023-10-23T17:29:45.125Z,19.52
2023-10-23T17:32:12.019Z,20.50
2023-10-23T17:34:39.297Z,18.38
2023-10-23T17:37:06.328Z,26.10
2023-10-23T17:39:33.412Z,21.70
2023-10-23T17:42:00.964Z,19.65
2023-10-23T17:44:27.929Z,17.67
2023-10-23T17:46:54.879Z,22.25
2023-10-23T17:49:23.109Z,20.90
2023-10-23T17:51:50.882Z,17.88
2023-10-23T17:54:18.095Z,22.05
2023-10-23T17:56:44.849Z,22.77
2023-10-23T17:59:12.709Z,23.80
2023-10-23T18:01:43.333Z,23.80
2023-10-23T18:04:12.291Z,27.08
2023-10-23T18:06:39.216Z,22.67
2023-10-23T18:09:06.388Z,24.67
2023-10-23T18:11:34.041Z,22.70
2023-10-23T18:14:01.297Z,27.55
2023-10-23T18:16:28.944Z,23.85
2023-10-23T18:18:56.716Z,25.48
2023-10-23T18:21:24.049Z,24.92
2023-10-23T18:23:52.430Z,23.50
2023-10-23T18:26:19.399Z,25.17
2023-10-23T18:28:46.667Z,27.45
2023-10-23T18:31:13.438Z,22.60
2023-10-23T18:33:40.522Z,24.27
2023-10-23T18:36:14.148Z,21.95
2023-10-23T18:38:42.561Z,23.92
2023-10-23T18:41:09.654Z,29.45
2023-10-23T18:43:36.744Z,22.42
2023-10-23T18:46:03.558Z,21.02
2023-10-23T18:48:32.751Z,20.85
2023-10-23T18:51:02.829Z,24.27
2023-10-23T18:55:56.516Z,24.67
2023-10-23T18:58:23.842Z,21.95
2023-10-23T19:00:51.353Z,22.50
2023-10-23T19:03:18.527Z,23.90
2023-10-23T19:05:46.138Z,19.45
2023-10-23T19:08:13.455Z,17.45
2023-10-23T19:10:40.790Z,24.05
2023-10-23T19:13:08.737Z,25.48
2023-10-23T19:15:35.733Z,23.83
2023-10-23T19:18:03.161Z,20.70
2023-10-23T19:20:29.990Z,22.17
2023-10-23T19:22:56.876Z,23.00
2023-10-23T19:25:23.947Z,23.88
2023-10-23T19:27:51.021Z,21.48
2023-10-23T19:30:17.954Z,20.42
2023-10-23T19:32:47.262Z,20.92
2023-10-23T19:35:14.578Z,18.92
2023-10-23T19:37:42.008Z,19.63
2023-10-23T19:40:10.566Z,17.40
2023-10-23T19:42:41.314Z,21.05
2023-10-23T19:45:11.327Z,18.92
2023-10-23T19:47:38.612Z,20.33
2023-10-23T19:50:05.948Z,20.95
2023-10-23T19:52:37.656Z,18.95
2023-10-23T19:55:42.636Z,18.20
2023-10-23T19:57:52.643Z,19.77
2023-10-23T20:00:19.744Z,20.23
2023-10-23T20:02:46.735Z,19.45
2023-10-23T20:05:13.615Z,18.27
2023-10-23T20:07:40.815Z,20.45
2023-10-23T20:10:10.957Z,19.88
2023-10-23T20:12:38.032Z,19.42
2023-10-23T20:15:05.464Z,21.08
2023-10-23T20:17:32.419Z,23.25
2023-10-23T20:19:59.227Z,19.90
2023-10-23T20:22:26.153Z,21.65
2023-10-23T20:24:53.278Z,22.70
2023-10-23T20:27:20.869Z,21.05
2023-10-23T20:29:47.740Z,22.77
2023-10-23T20:32:14.802Z,26.17
2023-10-23T20:34:41.645Z,21.98
2023-10-23T20:37:08.698Z,22.40
2023-10-23T20:39:35.388Z,22.88
2023-10-23T20:42:02.457Z,20.17
2023-10-23T20:44:29.157Z,24.20
2023-10-23T20:46:56.503Z,21.23
2023-10-23T20:49:23.313Z,23.58
2023-10-23T20:51:50.235Z,21.98
2023-10-23T20:54:18.098Z,21.88
2023-10-23T20:56:45.005Z,21.75
2023-10-23T20:59:11.820Z,22.25
2023-10-23T21:01:38.801Z,21.77
2023-10-23T21:04:05.726Z,22.30
2023-10-23T21:06:33.543Z,26.42
2023-10-23T21:09:00.235Z,29.90
2023-10-23T21:11:28.308Z,29.10
2023-10-23T21:13:55.003Z,30.70
2023-10-23T21:16:24.387Z,35.65
2023-10-23T21:18:51.218Z,39.95
2023-10-23T21:21:18.364Z,34.53
2023-10-23T21:23:45.093Z,36.72
2023-10-23T21:26:12.017Z,32.03
2023-10-23T21:28:40.515Z,33.30
2023-10-23T21:31:09.131Z,28.70
2023-10-23T21:33:35.928Z,32.70
2023-10-23T21:36:02.967Z,24.35
2023-10-23T21:38:29.778Z,25.02
2023-10-23T21:40:56.723Z,26.48
2023-10-23T21:43:23.465Z,26.95
2023-10-23T21:46:01.849Z,20.95
2023-10-23T21:48:37.405Z,23.67
2023-10-23T21:51:06.804Z,20.98
2023-10-23T21:53:33.829Z,21.45
2023-10-23T21:56:01.420Z,19.20
2023-10-23T21:59:03.680Z,20.35
2023-10-23T22:01:17.858Z,18.10
2023-10-23T22:03:45.032Z,16.85
2023-10-23T22:06:12.566Z,16.00
2023-10-23T22:08:39.543Z,15.80
2023-10-23T22:11:07.146Z,18.95
2023-10-23T22:13:34.728Z,18.20
2023-10-23T22:16:02.187Z,20.77
2023-10-23T22:18:29.292Z,17.27
2023-10-23T22:20:56.426Z,14.40
2023-10-23T22:23:23.286Z,16.08
2023-10-23T22:25:50.267Z,16.33
2023-10-23T22:28:17.049Z,13.98
2023-10-23T22:30:44.233Z,14.57
2023-10-23T22:33:15.284Z,14.73
2023-10-23T22:35:43.070Z,15.73
2023-10-23T22:38:13.781Z,17.55
2023-10-23T22:40:40.947Z,17.15
2023-10-23T22:43:07.786Z,16.17
2023-10-23T22:45:41.246Z,16.52
2023-10-23T22:48:14.272Z,14.55
2023-10-23T22:50:41.526Z,14.80
2023-10-23T22:53:08.486Z,16.00
2023-10-23T22:55:35.663Z,15.60
2023-10-23T22:58:05.401Z,14.98
2023-10-23T23:00:32.649Z,12.35
2023-10-23T23:02:59.522Z,15.05
2023-10-23T23:05:26.966Z,12.50
2023-10-23T23:07:55.345Z,13.43
2023-10-23T23:10:22.484Z,13.60
2023-10-23T23:12:49.389Z,12.90
2023-10-23T23:15:16.853Z,13.93
2023-10-23T23:17:47.279Z,13.93
2023-10-23T23:20:14.742Z,13.55
2023-10-23T23:22:41.553Z,16.15
2023-10-23T23:25:09.960Z,9.80
2023-10-23T23:27:36.870Z,15.27
2023-10-23T23:30:04.018Z,13.65
2023-10-23T23:32:30.733Z,12.65
2023-10-23T23:34:57.683Z,10.30
2023-10-23T23:37:24.341Z,15.00
2023-10-23T23:39:51.445Z,12.27
2023-10-23T23:42:18.147Z,11.52
2023-10-23T23:44:45.203Z,14.63
2023-10-23T23:47:11.839Z,12.93
2023-10-23T23:49:40.817Z,14.52
2023-10-23T23:52:07.821Z,13.50
2023-10-23T23:54:34.776Z,12.93
2023-10-23T23:57:01.415Z,13.30
2023-10-23T23:59:28.325Z,12.63
